ADDS TAF Board (Experimental) INFO Settings
IDs: Format: Expanded Condensed

KLAX - Los Angeles Intl, CA, US

Issued at 1457 UTC 27 Jul 2016
Updated at 1518 UTC 27 Jul 2016
Time1453Z 27/16Z 27/17Z 27/18Z 27/19Z 27/20Z 27/21Z 27/22Z 27/23Z 28/00Z 28/01Z 28/02Z 28/03Z 28/04Z
Type OBS PRVL PRVL PRVL PRVL PRVL PRVL PRVL PRVL PRVL PRVL PRVL PRVL PRVL
VIS 9 >6 >6 >6 >6 >6 >6 >6 >6 >6 >6 >6 >6 >6
CIG -- -- -- -- -- -- -- -- -- -- -- -- -- --
Cover SCT SCT SCT SCT SCT SCT SCT SCT SCT SCT SCT SCT SCT SKC
FltCat VFR VFR VFR VFR VFR VFR VFR VFR VFR VFR VFR VFR VFR VFR
WX -- -- -- -- -- -- -- -- -- -- -- -- -- --
WDir 260 260 250 250 250 250 260 260 260 260 260 260 260 260
WSpd 6 6 6 6 6 6 13 13 13 13 13 13 13 8
WGst -- -- -- -- -- -- -- -- -- -- -- -- -- --
R06/24
XWnd -0 -0 -1 -1 -1 -1 -1 -1 -1 -1 -1 -1 -1 -0
HWnd -6 -6 -6 -6 -6 -6 -13 -13 -13 -13 -13 -13 -13 -8
R07/25
XWnd -0 -0 -1 -1 -1 -1 -1 -1 -1 -1 -1 -1 -1 -0
HWnd -6 -6 -6 -6 -6 -6 -13 -13 -13 -13 -13 -13 -13 -8

Raw TAF
KLAX 271457Z 2715/2818 26006KT P6SM FEW005 FEW010 SCT180
  FM271700 25006KT P6SM SCT150
  FM272100 26013KT P6SM SCT120
  FM280400 26008KT P6SM SKC
  FM280900 VRB03KT P6SM BKN006
  FM281200 13004KT 6SM BR OVC008
  FM281600 23005KT P6SM SCT010


Raw METAR
KLAX 271453Z 26006KT 9SM FEW005 FEW010 SCT180 22/18 A2991 RMK AO2 SLP128 T02170183 53013
KLAX 271353Z VRB04KT 9SM FEW006 FEW010 SCT180 21/18 A2990 RMK AO2 SLP123 T02110183
KLAX 271253Z 33003KT 10SM FEW005 FEW010 SCT180 21/18 A2989 RMK AO2 SLP118 T02060183
KLAX 271247Z 32004KT 10SM FEW005 FEW010 SCT180 21/18 A2988 RMK AO2 T02060178

METAR Board
Radar Display
Forecast Discussion

TAF Board Legend

Potential Impact
Threat None Slight Moderate High
Visibility (sm) ≥5.1 5.1>X≥3 3>X≥1 <1
Ceiling (100 ft) ≥30.1 30.1>X≥10 10>X≥5 <5
Wind Speed (kt) <10 10≤X<20 20≤X<30 ≥30
Wind Gust (kt) <15 15≤X<25 25≤X<35 ≥35
Weather No Wx Reported VCTS,-TS,-FZRA,SN TS,FZRA +TS,+FZRA,+SN